createdAt,value
2023-05-24T00:01:07.830Z,9.68
2023-05-24T00:03:39.577Z,9.98
2023-05-24T00:06:07.371Z,7.97
2023-05-24T00:08:34.861Z,8.82
2023-05-24T00:11:02.030Z,8.38
2023-05-24T00:13:29.248Z,7.35
2023-05-24T00:15:56.438Z,7.60
2023-05-24T00:18:23.807Z,8.73
2023-05-24T00:20:52.175Z,9.45
2023-05-24T00:23:19.621Z,8.57
2023-05-24T00:25:46.860Z,9.52
2023-05-24T00:28:13.985Z,8.88
2023-05-24T00:30:41.374Z,10.27
2023-05-24T00:33:08.734Z,9.98
2023-05-24T00:35:36.038Z,8.18
2023-05-24T00:38:03.188Z,10.75
2023-05-24T00:40:30.422Z,9.05
2023-05-24T00:42:57.625Z,8.52
2023-05-24T00:45:24.848Z,7.95
2023-05-24T00:47:52.191Z,8.57
2023-05-24T00:50:21.133Z,9.88
2023-05-24T00:52:49.876Z,8.55
2023-05-24T00:55:17.224Z,8.20
2023-05-24T00:57:45.355Z,8.45
2023-05-24T01:00:13.062Z,8.10
2023-05-24T01:02:40.405Z,8.85
2023-05-24T01:05:08.524Z,8.95
2023-05-24T01:07:58.613Z,7.97
2023-05-24T01:10:32.122Z,7.50
2023-05-24T01:13:05.895Z,11.57
2023-05-24T01:15:57.809Z,9.17
2023-05-24T01:18:31.774Z,10.63
2023-05-24T01:21:25.585Z,7.28
2023-05-24T01:23:55.797Z,8.80
2023-05-24T01:26:41.407Z,7.53
2023-05-24T01:29:09.829Z,10.25
2023-05-24T01:31:37.361Z,9.50
2023-05-24T01:34:04.870Z,9.98
2023-05-24T01:36:31.936Z,8.15
2023-05-24T01:38:59.172Z,9.73
2023-05-24T01:42:04.323Z,7.93
2023-05-24T01:44:43.223Z,9.52
2023-05-24T01:47:16.186Z,9.98
2023-05-24T01:49:50.903Z,9.65
2023-05-24T01:52:22.595Z,12.55
2023-05-24T01:54:56.595Z,8.05
2023-05-24T01:57:25.693Z,7.80
2023-05-24T01:59:54.505Z,8.38
2023-05-24T02:02:22.157Z,10.93
2023-05-24T02:04:49.774Z,7.82
2023-05-24T02:07:17.793Z,8.05
2023-05-24T02:09:44.972Z,8.93
2023-05-24T02:12:12.343Z,8.48
2023-05-24T02:14:39.583Z,9.48
2023-05-24T02:17:06.858Z,9.57
2023-05-24T02:19:37.068Z,7.80
2023-05-24T02:22:04.776Z,8.52
2023-05-24T02:24:31.945Z,8.50
2023-05-24T02:26:59.110Z,8.98
2023-05-24T02:29:26.233Z,10.48
2023-05-24T02:31:56.607Z,7.05
2023-05-24T02:34:24.421Z,9.85
2023-05-24T02:36:54.451Z,9.20
2023-05-24T02:39:21.749Z,11.45
2023-05-24T02:41:48.906Z,10.07
2023-05-24T02:44:16.254Z,6.82
2023-05-24T02:46:43.405Z,11.23
2023-05-24T02:49:10.710Z,9.07
2023-05-24T02:51:37.996Z,7.88
2023-05-24T02:54:05.286Z,9.63
2023-05-24T02:56:32.479Z,10.75
2023-05-24T02:58:59.609Z,9.57
2023-05-24T03:01:27.293Z,11.32
2023-05-24T03:03:54.454Z,10.55
2023-05-24T03:06:21.646Z,8.43
2023-05-24T03:08:49.956Z,9.90
2023-05-24T03:11:19.396Z,9.80
2023-05-24T03:13:46.489Z,9.80
2023-05-24T03:16:13.700Z,8.40
2023-05-24T03:18:41.270Z,8.98
2023-05-24T03:21:08.437Z,8.50
2023-05-24T03:23:35.648Z,8.15
2023-05-24T03:26:02.857Z,10.35
2023-05-24T03:28:30.343Z,8.65
2023-05-24T03:30:57.512Z,10.40
2023-05-24T03:33:24.649Z,10.85
2023-05-24T03:35:51.869Z,10.38
2023-05-24T03:38:19.045Z,9.75
2023-05-24T03:40:46.520Z,10.55
2023-05-24T03:43:13.751Z,10.75
2023-05-24T03:45:41.056Z,9.48
2023-05-24T03:48:08.348Z,9.88
2023-05-24T03:50:35.994Z,9.60
2023-05-24T03:53:03.275Z,9.85
2023-05-24T03:55:30.664Z,9.10
2023-05-24T03:57:57.871Z,10.07
2023-05-24T04:00:25.047Z,10.27
2023-05-24T04:02:52.413Z,8.85
2023-05-24T04:05:19.810Z,8.85
2023-05-24T04:07:47.036Z,8.68
2023-05-24T04:10:14.219Z,8.63
2023-05-24T04:12:42.301Z,9.23
2023-05-24T04:15:10.141Z,10.35
2023-05-24T04:17:37.653Z,9.15
2023-05-24T04:20:06.218Z,9.45
2023-05-24T04:22:33.400Z,8.98
2023-05-24T04:25:00.638Z,7.97
2023-05-24T04:27:27.763Z,9.10
2023-05-24T04:29:55.227Z,8.23
2023-05-24T04:32:23.736Z,10.43
2023-05-24T04:34:52.656Z,10.20
2023-05-24T04:37:19.784Z,9.30
2023-05-24T04:39:46.982Z,8.95
2023-05-24T04:42:14.556Z,8.23
2023-05-24T04:44:42.894Z,7.03
2023-05-24T04:47:10.936Z,11.15
2023-05-24T04:49:38.175Z,10.40
2023-05-24T04:52:05.715Z,10.15
2023-05-24T04:54:34.073Z,12.15
2023-05-24T04:57:01.392Z,7.93
2023-05-24T04:59:28.546Z,8.93
2023-05-24T05:01:56.313Z,10.90
2023-05-24T05:04:23.444Z,8.95
2023-05-24T05:06:50.789Z,8.02
2023-05-24T05:12:00.381Z,9.40
2023-05-24T05:14:27.708Z,7.38
2023-05-24T05:16:55.030Z,15.43
2023-05-24T05:19:22.307Z,8.20
2023-05-24T05:21:49.457Z,9.55
2023-05-24T05:24:17.296Z,9.93
2023-05-24T05:26:44.498Z,8.43
2023-05-24T05:29:11.675Z,6.70
2023-05-24T05:31:40.169Z,5.97
2023-05-24T05:34:11.003Z,6.72
2023-05-24T05:36:42.787Z,4.95
2023-05-24T05:39:10.375Z,7.28
2023-05-24T05:41:45.790Z,4.38
2023-05-24T05:44:14.013Z,5.20
2023-05-24T05:46:44.060Z,3.78
2023-05-24T05:49:11.670Z,4.07
2023-05-24T05:51:39.336Z,3.30
2023-05-24T05:54:06.843Z,3.60
2023-05-24T05:56:34.068Z,4.60
2023-05-24T05:59:01.303Z,3.22
2023-05-24T06:01:28.411Z,7.72
2023-05-24T06:03:55.761Z,3.17
2023-05-24T06:06:22.912Z,4.05
2023-05-24T06:08:50.076Z,7.60
2023-05-24T06:11:17.604Z,9.05
2023-05-24T06:13:44.806Z,2.70
2023-05-24T06:16:11.992Z,4.28
2023-05-24T06:18:39.186Z,5.57
2023-05-24T06:21:10.820Z,3.55
2023-05-24T06:23:38.217Z,4.65
2023-05-24T06:26:06.486Z,2.63
2023-05-24T06:28:33.700Z,3.38
2023-05-24T06:31:01.019Z,3.33
2023-05-24T06:33:28.165Z,5.30
2023-05-24T06:35:55.388Z,8.32
2023-05-24T06:38:22.482Z,3.33
2023-05-24T06:40:49.785Z,4.57
2023-05-24T06:43:17.715Z,6.00
2023-05-24T06:45:44.829Z,2.58
2023-05-24T06:48:12.078Z,3.05
2023-05-24T06:50:41.600Z,3.60
2023-05-24T06:53:10.038Z,2.60
2023-05-24T06:55:37.740Z,2.72
2023-05-24T06:58:05.716Z,2.50
2023-05-24T07:00:32.864Z,3.28
2023-05-24T07:03:00.135Z,3.92
2023-05-24T07:05:27.345Z,4.93
2023-05-24T07:07:54.523Z,3.03
2023-05-24T07:10:21.640Z,2.75
2023-05-24T07:12:48.749Z,3.67
2023-05-24T07:15:16.008Z,4.53
2023-05-24T07:17:43.138Z,2.30
2023-05-24T07:20:11.187Z,3.85
2023-05-24T07:22:38.331Z,9.07
2023-05-24T07:25:05.895Z,3.83
2023-05-24T07:27:33.198Z,4.65
2023-05-24T07:30:00.301Z,7.38
2023-05-24T07:32:27.760Z,3.35
2023-05-24T07:34:55.290Z,4.75
2023-05-24T07:37:24.801Z,4.95
2023-05-24T07:39:52.667Z,8.50
2023-05-24T07:42:19.930Z,4.13
2023-05-24T07:44:47.130Z,2.80
2023-05-24T07:47:14.290Z,3.08
2023-05-24T07:49:41.718Z,3.35
2023-05-24T07:52:08.965Z,6.22
2023-05-24T07:54:36.803Z,8.45
2023-05-24T07:57:06.602Z,3.45
2023-05-24T07:59:35.204Z,4.47
2023-05-24T08:02:05.754Z,4.30
2023-05-24T08:04:33.594Z,4.88
2023-05-24T08:07:02.965Z,4.22
2023-05-24T08:09:30.380Z,4.32
2023-05-24T08:11:57.480Z,4.43
2023-05-24T08:14:24.679Z,6.03
2023-05-24T08:16:51.877Z,4.82
2023-05-24T08:19:19.715Z,5.07
2023-05-24T08:21:47.014Z,3.95
2023-05-24T08:24:14.130Z,3.47
2023-05-24T08:26:41.430Z,7.07
2023-05-24T08:29:08.839Z,7.68
2023-05-24T08:31:36.678Z,6.75
2023-05-24T08:34:05.274Z,3.22
2023-05-24T08:36:32.999Z,2.97
2023-05-24T08:39:00.413Z,5.88
2023-05-24T08:41:28.907Z,3.60
2023-05-24T08:43:59.556Z,5.38
2023-05-24T08:46:27.186Z,4.20
2023-05-24T08:48:54.725Z,3.90
2023-05-24T08:51:22.147Z,7.47
2023-05-24T08:53:51.348Z,5.57
2023-05-24T08:56:19.187Z,4.90
2023-05-24T08:58:47.502Z,6.53
2023-05-24T09:01:17.804Z,5.57
2023-05-24T09:03:47.237Z,6.22
2023-05-24T09:06:18.841Z,3.80
2023-05-24T09:08:46.487Z,4.00
2023-05-24T09:11:16.231Z,3.60
2023-05-24T09:13:45.995Z,4.95
2023-05-24T09:16:13.369Z,5.57
2023-05-24T09:18:42.908Z,5.03
2023-05-24T09:21:12.125Z,6.65
2023-05-24T09:23:40.918Z,4.80
2023-05-24T09:26:09.861Z,9.23
2023-05-24T09:28:38.257Z,6.93
2023-05-24T09:31:07.775Z,7.10
2023-05-24T09:33:36.290Z,8.88
2023-05-24T09:36:05.230Z,7.53
2023-05-24T09:38:32.641Z,7.75
2023-05-24T09:41:11.047Z,9.65
2023-05-24T09:43:48.799Z,8.43
2023-05-24T09:46:23.334Z,8.55
2023-05-24T09:49:00.869Z,9.80
2023-05-24T09:51:28.290Z,9.70
2023-05-24T09:54:02.026Z,8.48
2023-05-24T09:56:30.940Z,8.30
2023-05-24T09:58:58.733Z,6.72
2023-05-24T10:01:27.020Z,6.38
2023-05-24T10:03:59.421Z,7.57
2023-05-24T10:06:26.986Z,9.23
2023-05-24T10:08:57.256Z,8.05
2023-05-24T10:11:24.809Z,7.60
2023-05-24T10:13:52.110Z,8.02
2023-05-24T10:16:19.279Z,8.85
2023-05-24T10:18:46.453Z,10.68
2023-05-24T10:21:14.424Z,9.00
2023-05-24T10:23:44.692Z,8.93
2023-05-24T10:26:14.567Z,8.25
2023-05-24T10:28:56.111Z,7.32
2023-05-24T10:31:32.542Z,7.80
2023-05-24T10:34:07.957Z,8.18
2023-05-24T10:36:37.271Z,7.40
2023-05-24T10:39:05.148Z,8.30
2023-05-24T10:41:41.232Z,8.65
2023-05-24T10:44:17.541Z,10.00
2023-05-24T10:47:28.791Z,10.10
2023-05-24T10:50:04.860Z,7.32
2023-05-24T10:52:36.608Z,6.15
2023-05-24T10:55:08.162Z,7.53
2023-05-24T10:57:39.576Z,5.70
2023-05-24T11:00:34.749Z,6.60
2023-05-24T11:03:09.898Z,6.72
2023-05-24T11:05:53.172Z,8.50
2023-05-24T11:08:32.016Z,5.55
2023-05-24T11:11:24.352Z,7.82
2023-05-24T11:13:58.200Z,5.38
2023-05-24T11:16:40.964Z,5.38
2023-05-24T11:19:25.275Z,7.55
2023-05-24T11:21:59.087Z,5.90
2023-05-24T11:24:28.410Z,5.03
2023-05-24T11:26:57.284Z,4.90
2023-05-24T11:29:25.479Z,5.40
2023-05-24T11:32:09.634Z,4.75
2023-05-24T11:34:37.160Z,6.35
2023-05-24T11:37:06.351Z,4.75
2023-05-24T11:39:36.071Z,3.65
2023-05-24T11:42:08.082Z,3.50
2023-05-24T11:44:40.025Z,4.05
2023-05-24T11:47:08.979Z,4.88
2023-05-24T11:49:36.163Z,4.85
2023-05-24T11:52:03.940Z,4.35
2023-05-24T11:54:33.650Z,4.93
2023-05-24T11:57:02.028Z,4.47
2023-05-24T11:59:29.686Z,5.35
2023-05-24T12:02:08.167Z,5.03
2023-05-24T12:04:35.582Z,4.20
2023-05-24T12:07:03.451Z,4.13
2023-05-24T12:09:30.683Z,3.45
2023-05-24T12:12:00.385Z,4.30
2023-05-24T12:14:33.569Z,3.80
2023-05-24T12:17:01.481Z,4.50
2023-05-24T12:19:35.930Z,3.50
2023-05-24T12:22:07.663Z,4.25
2023-05-24T12:24:35.686Z,5.25
2023-05-24T12:27:06.994Z,4.95
2023-05-24T12:29:42.111Z,4.50
2023-05-24T12:32:15.074Z,5.47
2023-05-24T12:34:43.487Z,4.80
2023-05-24T12:37:12.764Z,5.97
2023-05-24T12:39:44.184Z,7.32
2023-05-24T12:42:14.003Z,5.60
2023-05-24T12:44:42.165Z,5.45
2023-05-24T12:47:10.705Z,5.15
2023-05-24T12:49:38.160Z,5.38
2023-05-24T12:52:06.751Z,4.57
2023-05-24T12:54:34.204Z,5.78
2023-05-24T12:57:03.041Z,5.55
2023-05-24T12:59:30.591Z,4.60
2023-05-24T13:01:58.416Z,3.72
2023-05-24T13:04:30.720Z,5.00
2023-05-24T13:06:57.866Z,5.85
2023-05-24T13:09:26.021Z,5.18
2023-05-24T13:11:54.342Z,8.55
2023-05-24T13:14:21.785Z,5.55
2023-05-24T13:16:49.249Z,8.02
2023-05-24T13:19:17.509Z,6.70
2023-05-24T13:21:45.299Z,9.77
2023-05-24T13:24:15.973Z,9.70
2023-05-24T13:26:43.550Z,8.57
2023-05-24T13:31:41.369Z,7.85
2023-05-24T13:34:09.434Z,7.65
2023-05-24T13:36:38.164Z,8.48
2023-05-24T13:39:15.414Z,8.88
2023-05-24T13:41:44.561Z,8.88
2023-05-24T13:44:13.464Z,8.98
2023-05-24T13:46:41.120Z,8.02
2023-05-24T13:49:09.525Z,6.95
2023-05-24T13:51:38.104Z,8.63
2023-05-24T13:54:07.871Z,10.00
2023-05-24T13:56:35.815Z,8.18
2023-05-24T13:59:04.640Z,8.85
2023-05-24T14:01:33.114Z,8.02
2023-05-24T14:04:04.024Z,7.05
2023-05-24T14:06:32.119Z,8.38
2023-05-24T14:09:00.288Z,7.32
2023-05-24T14:11:31.571Z,8.23
2023-05-24T14:16:29.463Z,7.95
2023-05-24T14:18:56.882Z,7.53
2023-05-24T14:21:26.039Z,8.15
2023-05-24T14:23:53.610Z,7.25
2023-05-24T14:26:24.001Z,6.65
2023-05-24T14:28:54.458Z,8.00
2023-05-24T14:31:23.444Z,6.75
2023-05-24T14:33:50.935Z,8.85
2023-05-24T14:36:18.150Z,9.43
2023-05-24T14:38:45.605Z,8.07
2023-05-24T14:41:12.791Z,7.30
2023-05-24T14:43:40.597Z,7.82
2023-05-24T14:46:07.732Z,9.73
2023-05-24T14:48:35.515Z,6.95
2023-05-24T14:51:02.639Z,4.60
2023-05-24T14:53:29.747Z,4.72
2023-05-24T14:55:56.841Z,4.30
2023-05-24T14:58:24.102Z,5.18
2023-05-24T15:00:51.276Z,6.30
2023-05-24T15:03:18.912Z,4.93
2023-05-24T15:05:46.518Z,5.38
2023-05-24T15:08:13.897Z,5.20
2023-05-24T15:10:41.422Z,4.40
2023-05-24T15:13:08.729Z,3.58
2023-05-24T15:15:36.120Z,4.10
2023-05-24T15:18:03.446Z,4.10
2023-05-24T15:20:30.674Z,4.43
2023-05-24T15:22:57.868Z,4.20
2023-05-24T15:25:24.997Z,5.40
2023-05-24T15:27:52.210Z,6.50
2023-05-24T15:30:20.952Z,5.97
2023-05-24T15:32:48.099Z,7.20
2023-05-24T15:35:15.318Z,5.82
2023-05-24T15:37:43.321Z,7.13
2023-05-24T15:40:11.253Z,4.78
2023-05-24T15:42:39.515Z,4.72
2023-05-24T15:45:07.348Z,4.25
2023-05-24T15:47:40.009Z,5.40
2023-05-24T15:50:09.069Z,4.35
2023-05-24T15:52:36.678Z,6.53
2023-05-24T15:55:04.198Z,4.85
2023-05-24T15:57:31.675Z,4.75
2023-05-24T15:59:58.811Z,4.38
2023-05-24T16:04:53.025Z,6.90
2023-05-24T16:07:20.209Z,5.10
2023-05-24T16:09:47.517Z,5.25
2023-05-24T16:12:14.648Z,5.80
2023-05-24T16:14:41.913Z,6.80
2023-05-24T16:17:09.234Z,4.93
2023-05-24T16:19:36.820Z,4.72
2023-05-24T16:22:04.631Z,5.05
2023-05-24T16:24:31.748Z,5.65
2023-05-24T16:26:58.874Z,5.93
2023-05-24T16:29:27.061Z,5.13
2023-05-24T16:31:54.323Z,4.55
2023-05-24T16:34:23.837Z,4.80
2023-05-24T16:36:51.300Z,5.07
2023-05-24T16:39:18.616Z,5.90
2023-05-24T16:41:45.877Z,5.43
2023-05-24T16:44:17.952Z,4.68
2023-05-24T16:46:46.934Z,8.25
2023-05-24T16:49:14.283Z,5.97
2023-05-24T16:51:41.406Z,4.90
2023-05-24T16:54:09.439Z,5.63
2023-05-24T16:56:38.186Z,5.20
2023-05-24T16:59:05.705Z,5.35
2023-05-24T17:01:32.873Z,5.25
2023-05-24T17:04:00.301Z,5.82
2023-05-24T17:06:27.759Z,4.78
2023-05-24T17:08:54.937Z,4.55
2023-05-24T17:11:23.395Z,5.20
2023-05-24T17:13:51.722Z,6.82
2023-05-24T17:16:19.633Z,5.70
2023-05-24T17:18:46.878Z,5.60
2023-05-24T17:21:14.223Z,5.70
2023-05-24T17:23:41.691Z,6.03
2023-05-24T17:26:08.997Z,5.57
2023-05-24T17:28:36.593Z,5.40
2023-05-24T17:31:04.261Z,5.47
2023-05-24T17:33:32.449Z,6.88
2023-05-24T17:36:03.411Z,5.72
2023-05-24T17:38:33.307Z,5.70
2023-05-24T17:41:00.506Z,5.82
2023-05-24T17:43:34.569Z,8.82
2023-05-24T17:46:04.108Z,5.97
2023-05-24T17:48:38.301Z,8.10
2023-05-24T17:51:07.901Z,8.18
2023-05-24T17:53:36.794Z,8.23
2023-05-24T17:56:05.232Z,8.68
2023-05-24T17:58:36.890Z,9.13
2023-05-24T18:01:06.311Z,9.93
2023-05-24T18:03:37.967Z,11.25
2023-05-24T18:06:07.383Z,9.57
2023-05-24T18:08:38.124Z,10.48
2023-05-24T18:11:08.636Z,10.82
2023-05-24T18:13:38.823Z,12.88
2023-05-24T18:16:10.650Z,11.90
2023-05-24T18:18:38.048Z,12.90
2023-05-24T18:21:06.623Z,11.82
2023-05-24T18:23:37.897Z,9.23
2023-05-24T18:26:10.074Z,13.77
2023-05-24T18:28:38.279Z,13.85
2023-05-24T18:31:08.681Z,12.55
2023-05-24T18:33:36.998Z,13.00
2023-05-24T18:36:05.899Z,12.55
2023-05-24T18:38:37.706Z,11.65
2023-05-24T18:41:06.474Z,15.02
2023-05-24T18:43:33.743Z,13.55
2023-05-24T18:46:01.219Z,11.73
2023-05-24T18:48:28.351Z,13.43
2023-05-24T18:50:55.572Z,17.95
2023-05-24T18:53:22.769Z,13.80
2023-05-24T18:55:49.892Z,15.73
2023-05-24T18:58:17.100Z,14.07
2023-05-24T19:00:44.342Z,17.60
2023-05-24T19:03:12.365Z,13.98
2023-05-24T19:05:42.598Z,14.32
2023-05-24T19:08:11.000Z,17.30
2023-05-24T19:10:38.106Z,17.27
2023-05-24T19:13:06.948Z,17.98
2023-05-24T19:15:36.874Z,14.70
2023-05-24T19:18:04.368Z,17.27
2023-05-24T19:20:31.660Z,16.70
2023-05-24T19:22:59.175Z,19.75
2023-05-24T19:25:26.951Z,16.98
2023-05-24T19:28:00.087Z,16.15
2023-05-24T19:30:28.135Z,18.05
2023-05-24T19:32:55.455Z,20.40
2023-05-24T19:35:22.832Z,17.50
2023-05-24T19:37:50.214Z,19.77
2023-05-24T19:40:17.437Z,19.55
2023-05-24T19:42:44.579Z,22.15
2023-05-24T19:45:13.576Z,17.50
2023-05-24T19:47:40.819Z,21.73
2023-05-24T19:50:08.405Z,25.33
2023-05-24T19:52:35.613Z,22.70
2023-05-24T19:55:02.877Z,25.50
2023-05-24T19:57:30.055Z,19.92
2023-05-24T19:59:57.290Z,19.88
2023-05-24T20:02:24.541Z,20.13
2023-05-24T20:04:51.756Z,22.33
2023-05-24T20:07:18.824Z,19.90
2023-05-24T20:09:46.040Z,20.00
2023-05-24T20:12:13.173Z,22.25
2023-05-24T20:14:40.293Z,18.00
2023-05-24T20:17:07.466Z,20.23
2023-05-24T20:19:34.610Z,21.75
2023-05-24T20:22:01.735Z,17.00
2023-05-24T20:24:28.889Z,22.73
2023-05-24T20:26:55.998Z,16.60
2023-05-24T20:29:23.216Z,19.50
2023-05-24T20:31:50.618Z,17.30
2023-05-24T20:34:17.767Z,20.35
2023-05-24T20:36:44.996Z,18.90
2023-05-24T20:39:12.405Z,17.33
2023-05-24T20:41:39.742Z,19.42
2023-05-24T20:44:06.873Z,18.85
2023-05-24T20:46:34.077Z,18.60
2023-05-24T20:49:01.344Z,19.30
2023-05-24T20:51:28.489Z,19.67
2023-05-24T20:53:56.094Z,19.45
2023-05-24T20:56:23.404Z,17.48
2023-05-24T20:58:53.238Z,21.92
2023-05-24T21:01:21.387Z,18.48
2023-05-24T21:03:48.998Z,19.67
2023-05-24T21:06:16.266Z,19.50
2023-05-24T21:08:43.686Z,18.40
2023-05-24T21:11:10.893Z,18.42
2023-05-24T21:13:38.266Z,17.85
2023-05-24T21:16:05.647Z,18.73
2023-05-24T21:18:33.639Z,17.95
2023-05-24T21:21:00.866Z,19.85
2023-05-24T21:23:28.259Z,18.40
2023-05-24T21:25:55.440Z,20.17
2023-05-24T21:28:22.573Z,17.83
2023-05-24T21:30:49.816Z,21.30
2023-05-24T21:33:17.120Z,17.50
2023-05-24T21:35:44.635Z,17.85
2023-05-24T21:38:11.998Z,18.33
2023-05-24T21:40:39.113Z,18.95
2023-05-24T21:43:06.864Z,17.92
2023-05-24T21:45:33.975Z,19.92
2023-05-24T21:48:01.988Z,16.27
2023-05-24T21:50:29.184Z,16.77
2023-05-24T21:52:56.336Z,16.45
2023-05-24T21:55:23.407Z,16.13
2023-05-24T21:57:52.641Z,15.43
2023-05-24T22:00:23.359Z,15.45
2023-05-24T22:02:50.877Z,14.82
2023-05-24T22:05:19.251Z,17.08
2023-05-24T22:07:46.435Z,18.05
2023-05-24T22:10:13.586Z,14.68
2023-05-24T22:12:40.730Z,17.92
2023-05-24T22:15:08.421Z,16.83
2023-05-24T22:17:37.032Z,16.08
2023-05-24T22:20:06.329Z,17.95
2023-05-24T22:22:33.639Z,17.95
2023-05-24T22:25:02.224Z,19.33
2023-05-24T22:27:29.856Z,16.13
2023-05-24T22:29:57.002Z,20.00
2023-05-24T22:32:24.185Z,19.50
2023-05-24T22:34:51.311Z,15.70
2023-05-24T22:37:18.483Z,17.20
2023-05-24T22:39:45.773Z,17.50
2023-05-24T22:42:12.917Z,16.00
2023-05-24T22:44:40.005Z,15.40
2023-05-24T22:47:08.319Z,15.88
2023-05-24T22:49:35.919Z,18.58
2023-05-24T22:52:03.200Z,15.60
2023-05-24T22:54:30.309Z,15.02
2023-05-24T22:56:57.944Z,16.27
2023-05-24T22:59:25.135Z,17.08
2023-05-24T23:01:52.846Z,15.82
2023-05-24T23:04:21.835Z,19.75
2023-05-24T23:06:53.246Z,18.02
2023-05-24T23:09:35.033Z,17.48
2023-05-24T23:12:08.125Z,14.90
2023-05-24T23:14:38.995Z,16.10
2023-05-24T23:17:07.708Z,17.23
2023-05-24T23:19:34.862Z,17.98
2023-05-24T23:22:03.597Z,17.92
2023-05-24T23:24:31.522Z,17.73
2023-05-24T23:26:58.621Z,17.42
2023-05-24T23:29:25.771Z,18.85
2023-05-24T23:31:52.910Z,19.33
2023-05-24T23:34:20.035Z,20.58
2023-05-24T23:36:47.175Z,20.88
2023-05-24T23:39:14.329Z,18.63
2023-05-24T23:41:41.463Z,19.17
2023-05-24T23:44:08.738Z,19.60
2023-05-24T23:46:36.259Z,18.30
2023-05-24T23:49:03.473Z,19.25
2023-05-24T23:51:33.384Z,19.48
2023-05-24T23:54:00.967Z,16.73
2023-05-24T23:56:28.205Z,20.13
2023-05-24T23:58:55.352Z,18.75
